Time;durP1;ratioP1;P1;durP2;ratioP2;P2;SDS_P1;SDS_P2;PMS_P1;PMS_P2;Temp;Humidity;BMP_temperature;BMP_pressure;BME280_temperature;BME280_humidity;BME280_pressure;Samples;Min_cycle;Max_cycle;Signal;HPM_P1;HPM_P2
2023/10/27 00:00:29;;;;;;;;;;;;;;;16.50;74.84;98639.19;5445071;32;35603;-71
2023/10/27 00:03:31;;;;;;;;;;;;;;;15.89;80.19;98642.88;5460556;32;34995;-69
2023/10/27 00:06:33;;;;;;;;;;;;;;;16.57;76.92;98631.53;5459185;32;34953;-68
2023/10/27 00:09:37;;;;;;;;;;;;;;;15.76;81.61;98636.16;5437430;32;35233;-69
2023/10/27 00:12:40;;;;;;;;;;;;;;;16.47;77.63;98631.50;5446034;32;34278;-68
2023/10/27 00:15:42;;;;;;;;;;;;;;;16.21;78.54;98633.88;5461766;32;34493;-71
2023/10/27 00:18:44;;;;;;;;;;;;;;;17.40;72.89;98625.50;5463203;32;35035;-71
2023/10/27 00:21:46;;;;;;;;;;;;;;;16.53;76.43;98620.34;5460007;32;34475;-70
2023/10/27 00:24:48;;;;;;;;;;;;;;;15.96;80.84;98628.09;5463697;32;35135;-69
2023/10/27 00:27:50;;;;;;;;;;;;;;;17.28;73.99;98622.19;5459312;32;34582;-72
2023/10/27 00:30:53;;;;;;;;;;;;;;;17.82;70.72;98612.59;5463180;32;35123;-70
2023/10/27 00:33:55;;;;;;;;;;;;;;;17.61;71.65;98611.97;5460278;32;35466;-68
2023/10/27 00:36:57;;;;;;;;;;;;;;;17.02;73.73;98621.16;5461855;32;34637;-70
2023/10/27 00:40:00;;;;;;;;;;;;;;;17.32;73.53;98610.31;5447761;32;34807;-71
2023/10/27 00:43:03;;;;;;;;;;;;;;;17.79;70.81;98604.94;5443409;32;34841;-70
2023/10/27 00:46:05;;;;;;;;;;;;;;;17.86;70.36;98603.34;5443921;32;35234;-69
2023/10/27 00:49:07;;;;;;;;;;;;;;;17.85;70.32;98599.00;5444813;32;34255;-70
2023/10/27 00:52:13;;;;;;;;;;;;;;;17.55;71.50;98604.59;5464026;32;35083;-69
2023/10/27 00:55:15;;;;;;;;;;;;;;;17.50;71.96;98594.41;5459669;32;35660;-71
2023/10/27 00:58:17;;;;;;;;;;;;;;;17.33;72.97;98606.66;5458878;32;35151;-70
2023/10/27 01:01:19;;;;;;;;;;;;;;;17.50;72.63;98605.03;5443478;32;34385;-70
2023/10/27 01:04:22;;;;;;;;;;;;;;;17.44;72.57;98604.78;5442470;32;35007;-71
2023/10/27 01:07:24;;;;;;;;;;;;;;;17.60;72.21;98612.97;5464436;32;35607;-71
2023/10/27 01:10:26;;;;;;;;;;;;;;;17.07;73.59;98605.63;5460189;32;34506;-70
2023/10/27 01:13:28;;;;;;;;;;;;;;;16.68;76.72;98604.81;5448796;32;34784;-73
2023/10/27 01:16:30;;;;;;;;;;;;;;;16.30;79.25;98598.59;5458583;32;35634;-68
2023/10/27 01:19:35;;;;;;;;;;;;;;;16.50;79.18;98599.41;5443295;32;34712;-69
2023/10/27 01:22:56;;;;;;;;;;;;;;;17.38;74.17;98600.88;5461386;32;36034;-70
2023/10/27 01:25:58;;;;;;;;;;;;;;;16.62;77.43;98590.34;5457991;32;34391;-70
2023/10/27 01:29:00;;;;;;;;;;;;;;;16.21;80.80;98584.34;5467457;32;35259;-69
2023/10/27 01:32:02;;;;;;;;;;;;;;;16.52;79.48;98578.91;5458210;32;34517;-71
2023/10/27 01:35:05;;;;;;;;;;;;;;;17.41;74.85;98574.06;5461393;32;35054;-69
2023/10/27 01:38:07;;;;;;;;;;;;;;;17.60;72.67;98573.13;5459596;32;34301;-70
2023/10/27 01:41:09;;;;;;;;;;;;;;;17.49;73.48;98571.50;5455552;32;35494;-69
2023/10/27 01:44:11;;;;;;;;;;;;;;;17.21;75.00;98570.66;5462218;32;35427;-69
2023/10/27 01:47:14;;;;;;;;;;;;;;;16.96;76.16;98563.34;5458378;32;34172;-68
2023/10/27 01:50:16;;;;;;;;;;;;;;;16.63;78.39;98556.69;5462075;32;35185;-69
2023/10/27 01:53:18;;;;;;;;;;;;;;;16.48;79.88;98561.56;5458418;32;34974;-69
2023/10/27 01:56:20;;;;;;;;;;;;;;;16.52;80.46;98557.69;5459685;32;35413;-70
2023/10/27 01:59:22;;;;;;;;;;;;;;;16.82;79.01;98550.53;5461576;32;35020;-71
2023/10/27 02:02:24;;;;;;;;;;;;;;;16.91;78.46;98547.84;5456753;32;34993;-70
2023/10/27 02:05:27;;;;;;;;;;;;;;;16.90;78.19;98540.88;5461988;32;34577;-68
2023/10/27 02:08:29;;;;;;;;;;;;;;;16.74;79.20;98545.94;5460881;32;35634;-68
2023/10/27 02:11:31;;;;;;;;;;;;;;;16.45;80.76;98538.00;5462868;32;34675;-71
2023/10/27 02:14:33;;;;;;;;;;;;;;;16.40;82.03;98540.25;5458709;32;34450;-69
2023/10/27 02:17:37;;;;;;;;;;;;;;;16.53;81.24;98532.81;5443949;32;34955;-69
2023/10/27 02:20:40;;;;;;;;;;;;;;;16.67;80.33;98532.38;5459430;32;35514;-70
2023/10/27 02:23:42;;;;;;;;;;;;;;;16.57;80.95;98526.28;5458500;32;34024;-69
2023/10/27 02:26:44;;;;;;;;;;;;;;;16.56;81.47;98529.91;5462704;32;34941;-69
2023/10/27 02:29:46;;;;;;;;;;;;;;;16.65;81.18;98529.03;5459383;32;35226;-68
2023/10/27 02:32:48;;;;;;;;;;;;;;;16.73;81.03;98520.38;5446135;32;35380;-71
2023/10/27 02:35:50;;;;;;;;;;;;;;;16.83;80.21;98512.41;5457275;32;35511;-70
2023/10/27 02:38:53;;;;;;;;;;;;;;;16.55;82.65;98522.06;5444997;32;35309;-71
2023/10/27 02:41:55;;;;;;;;;;;;;;;16.12;84.95;98518.94;5464580;32;34650;-69
2023/10/27 02:44:57;;;;;;;;;;;;;;;16.47;85.24;98514.84;5445097;32;34318;-69
2023/10/27 02:47:59;;;;;;;;;;;;;;;17.35;78.49;98512.75;5465220;32;35581;-71
2023/10/27 02:51:02;;;;;;;;;;;;;;;17.27;77.73;98509.00;5446342;32;34584;-70
2023/10/27 02:54:04;;;;;;;;;;;;;;;16.81;80.20;98511.69;5450871;32;35446;-70
2023/10/27 02:57:06;;;;;;;;;;;;;;;16.90;80.83;98511.69;5461079;32;35098;-70
2023/10/27 03:00:08;;;;;;;;;;;;;;;17.13;79.48;98496.22;5462495;32;35384;-69
2023/10/27 03:03:11;;;;;;;;;;;;;;;16.97;79.82;98501.31;5462548;32;34754;-69
2023/10/27 03:06:13;;;;;;;;;;;;;;;17.00;80.71;98490.41;5459458;32;35070;-71
2023/10/27 03:09:15;;;;;;;;;;;;;;;16.94;81.07;98491.84;5465755;32;35477;-68
2023/10/27 03:12:17;;;;;;;;;;;;;;;17.02;81.10;98486.63;5471315;32;34483;-70
2023/10/27 03:15:19;;;;;;;;;;;;;;;16.93;81.56;98478.69;5465398;32;35496;-70
2023/10/27 03:18:21;;;;;;;;;;;;;;;16.53;85.30;98483.28;5446373;32;34789;-70
2023/10/27 03:21:24;;;;;;;;;;;;;;;16.59;85.67;98473.06;5446756;32;34984;-69
2023/10/27 03:24:26;;;;;;;;;;;;;;;16.75;84.32;98468.87;5465313;32;35111;-68
2023/10/27 03:27:28;;;;;;;;;;;;;;;16.57;84.92;98457.31;5446503;32;34636;-69
2023/10/27 03:30:30;;;;;;;;;;;;;;;17.36;80.74;98445.38;5465136;32;35408;-69
2023/10/27 03:33:32;;;;;;;;;;;;;;;16.98;83.18;98442.78;5446138;32;34275;-70
2023/10/27 03:36:34;;;;;;;;;;;;;;;17.18;81.12;98434.72;5449610;32;34671;-68
2023/10/27 03:39:37;;;;;;;;;;;;;;;16.92;83.08;98432.75;5461634;32;34507;-68
2023/10/27 03:42:39;;;;;;;;;;;;;;;16.61;83.88;98436.63;5460860;32;34834;-70
2023/10/27 03:45:41;;;;;;;;;;;;;;;16.07;89.22;98438.19;5464703;32;35019;-70
2023/10/27 03:48:44;;;;;;;;;;;;;;;16.41;88.17;98425.25;5461392;32;35719;-70
2023/10/27 03:51:46;;;;;;;;;;;;;;;16.75;86.30;98426.44;5465018;32;34480;-69
2023/10/27 03:54:48;;;;;;;;;;;;;;;16.52;89.19;98423.28;5461679;32;34997;-69
2023/10/27 03:57:52;;;;;;;;;;;;;;;16.60;87.43;98414.59;5463558;32;34598;-69
2023/10/27 04:00:55;;;;;;;;;;;;;;;17.36;83.07;98405.53;5443100;32;35606;-70
2023/10/27 04:03:57;;;;;;;;;;;;;;;16.78;86.70;98396.94;5444201;32;34201;-69
2023/10/27 04:07:01;;;;;;;;;;;;;;;17.49;82.61;98392.72;5463330;32;34221;-70
2023/10/27 04:10:03;;;;;;;;;;;;;;;17.00;84.68;98390.41;5461266;32;34535;-71
2023/10/27 04:13:07;;;;;;;;;;;;;;;17.31;83.81;98382.91;5465362;32;35500;-70
2023/10/27 04:16:09;;;;;;;;;;;;;;;17.76;80.79;98371.38;5459676;32;34845;-71
2023/10/27 04:19:11;;;;;;;;;;;;;;;17.38;82.08;98369.03;5464369;32;34823;-71
2023/10/27 04:22:17;;;;;;;;;;;;;;;17.76;80.27;98360.75;5460546;32;34302;-69
2023/10/27 04:25:19;;;;;;;;;;;;;;;17.37;82.36;98352.28;5460589;32;35124;-69
2023/10/27 04:28:21;;;;;;;;;;;;;;;17.21;82.72;98350.31;5464350;32;34382;-70
2023/10/27 04:31:25;;;;;;;;;;;;;;;17.19;84.14;98341.66;5459674;32;34491;-70
2023/10/27 04:34:28;;;;;;;;;;;;;;;17.80;79.63;98329.41;5450085;32;34851;-70
2023/10/27 04:37:33;;;;;;;;;;;;;;;17.57;80.73;98334.34;5439884;32;35758;-72
2023/10/27 04:40:35;;;;;;;;;;;;;;;17.67;80.62;98326.31;5443171;32;35906;-70
2023/10/27 04:43:37;;;;;;;;;;;;;;;17.46;82.69;98329.31;5472038;32;35096;-70
2023/10/27 04:46:40;;;;;;;;;;;;;;;17.56;80.78;98301.66;5459896;32;35335;-70
2023/10/27 04:49:42;;;;;;;;;;;;;;;16.84;85.58;98296.53;5465578;32;33458;-71
2023/10/27 04:52:45;;;;;;;;;;;;;;;16.71;88.33;98287.13;5445430;32;34606;-70
2023/10/27 04:55:53;;;;;;;;;;;;;;;16.74;87.93;98278.87;5449959;32;35544;-73
2023/10/27 04:59:37;;;;;;;;;;;;;;;17.31;83.27;98271.41;5401442;32;34679;-71
2023/10/27 05:02:53;;;;;;;;;;;;;;;17.02;85.00;98257.56;5377828;32;35591;-69
2023/10/27 05:05:55;;;;;;;;;;;;;;;16.85;84.03;98243.31;5385814;32;35170;-70
2023/10/27 05:08:57;;;;;;;;;;;;;;;16.98;84.80;98258.84;5381683;32;35357;-70
2023/10/27 05:11:59;;;;;;;;;;;;;;;15.99;91.34;98256.09;5385426;32;34151;-70
2023/10/27 05:15:01;;;;;;;;;;;;;;;16.32;89.39;98251.19;5380592;32;33950;-72
2023/10/27 05:18:06;;;;;;;;;;;;;;;16.33;91.32;98247.53;5381517;32;34712;-70
2023/10/27 05:21:15;;;;;;;;;;;;;;;16.52;88.23;98236.81;5386099;32;34080;-71
2023/10/27 05:24:17;;;;;;;;;;;;;;;16.46;88.06;98226.81;5370086;32;34916;-70
2023/10/27 05:27:19;;;;;;;;;;;;;;;16.19;93.96;98231.16;5384834;32;35076;-70
2023/10/27 05:30:21;;;;;;;;;;;;;;;15.91;94.65;98232.97;5381910;32;36516;-70
2023/10/27 05:33:25;;;;;;;;;;;;;;;16.18;92.01;98224.19;5373954;32;34695;-71
2023/10/27 05:36:27;;;;;;;;;;;;;;;16.15;90.82;98223.63;5371287;32;33885;-70
2023/10/27 05:39:29;;;;;;;;;;;;;;;16.75;86.78;98216.87;5383161;32;35380;-71
2023/10/27 05:42:31;;;;;;;;;;;;;;;16.27;88.62;98211.03;5386097;32;34603;-69
2023/10/27 05:45:33;;;;;;;;;;;;;;;15.75;91.31;98202.78;5371134;32;34608;-71
2023/10/27 05:48:36;;;;;;;;;;;;;;;16.02;93.49;98204.59;5386973;32;36604;-71
2023/10/27 05:51:38;;;;;;;;;;;;;;;16.20;91.04;98202.84;5382913;32;34983;-71
2023/10/27 05:54:40;;;;;;;;;;;;;;;16.14;92.79;98200.78;5383620;32;34478;-68
2023/10/27 05:57:42;;;;;;;;;;;;;;;16.60;88.20;98191.81;5373148;32;35486;-68
2023/10/27 06:00:44;;;;;;;;;;;;;;;16.51;89.82;98190.09;5400432;32;34764;-69
2023/10/27 06:03:46;;;;;;;;;;;;;;;15.78;92.89;98191.88;5402981;32;34512;-69
2023/10/27 06:06:49;;;;;;;;;;;;;;;16.28;89.27;98188.84;5399131;32;34934;-72
2023/10/27 06:09:50;;;;;;;;;;;;;;;16.65;88.14;98173.63;5408003;32;34112;-71
2023/10/27 06:12:52;;;;;;;;;;;;;;;16.12;89.50;98174.44;5405333;32;34668;-71
2023/10/27 06:15:57;;;;;;;;;;;;;;;16.80;85.40;98173.94;5439297;32;35349;-67
2023/10/27 06:19:00;;;;;;;;;;;;;;;16.39;89.28;98172.72;5466762;32;34879;-75
2023/10/27 06:22:06;;;;;;;;;;;;;;;16.47;88.31;98162.19;5464860;32;34952;-69
2023/10/27 06:25:09;;;;;;;;;;;;;;;16.82;86.21;98157.91;5455929;32;34534;-66
2023/10/27 06:28:12;;;;;;;;;;;;;;;16.50;88.15;98152.12;5439683;32;35403;-67
2023/10/27 06:31:14;;;;;;;;;;;;;;;16.49;89.40;98131.91;5469614;32;34684;-70
2023/10/27 06:34:16;;;;;;;;;;;;;;;16.59;86.98;98130.97;5464964;32;34329;-68
2023/10/27 06:37:19;;;;;;;;;;;;;;;16.49;89.87;98145.16;5466382;32;34850;-71
2023/10/27 06:40:21;;;;;;;;;;;;;;;16.79;87.41;98135.97;5453934;32;34467;-67
2023/10/27 06:43:26;;;;;;;;;;;;;;;17.13;85.52;98122.00;5465352;32;35532;-72
2023/10/27 06:46:29;;;;;;;;;;;;;;;16.53;87.92;98132.41;5468825;32;34756;-66
2023/10/27 06:49:31;;;;;;;;;;;;;;;16.82;86.82;98126.91;5452998;32;34960;-71
2023/10/27 06:52:33;;;;;;;;;;;;;;;16.86;85.45;98116.81;5437802;32;986267;-67
2023/10/27 06:55:35;;;;;;;;;;;;;;;17.09;85.14;98112.66;5466038;32;35163;-66
2023/10/27 06:58:37;;;;;;;;;;;;;;;16.23;90.88;98137.12;5467587;32;34406;-73
2023/10/27 07:01:44;;;;;;;;;;;;;;;17.35;83.88;98109.16;5451518;32;34646;-68
2023/10/27 07:04:48;;;;;;;;;;;;;;;17.22;83.33;98105.09;5465454;32;34206;-73
2023/10/27 07:07:50;;;;;;;;;;;;;;;16.75;87.20;98102.81;5465274;32;34328;-67
2023/10/27 07:10:57;;;;;;;;;;;;;;;17.09;84.50;98102.03;5466555;32;33440;-68
2023/10/27 07:13:59;;;;;;;;;;;;;;;16.88;84.84;98090.97;5469834;32;34733;-72
2023/10/27 07:17:04;;;;;;;;;;;;;;;16.83;85.85;98093.25;5468278;32;34921;-72
2023/10/27 07:20:06;;;;;;;;;;;;;;;16.51;89.99;98100.75;5452212;32;35510;-69
2023/10/27 07:23:08;;;;;;;;;;;;;;;16.97;85.81;98082.91;5467597;32;34605;-70
2023/10/27 07:26:14;;;;;;;;;;;;;;;17.10;84.96;98087.78;5466161;32;34846;-68
2023/10/27 07:29:16;;;;;;;;;;;;;;;17.16;84.60;98089.81;5457914;32;34910;-66
2023/10/27 07:32:18;;;;;;;;;;;;;;;17.11;84.07;98072.69;5467724;32;34928;-73
2023/10/27 07:35:20;;;;;;;;;;;;;;;16.52;88.96;98083.03;5470923;32;34814;-71
2023/10/27 07:38:22;;;;;;;;;;;;;;;17.21;83.92;98068.13;5467294;32;35973;-73
2023/10/27 07:41:24;;;;;;;;;;;;;;;17.23;84.67;98051.03;5469964;32;35870;-72
2023/10/27 07:44:26;;;;;;;;;;;;;;;17.60;82.33;98052.50;5470762;32;34644;-71
2023/10/27 07:47:28;;;;;;;;;;;;;;;17.05;83.37;98056.41;5454022;32;34376;-75
2023/10/27 07:50:30;;;;;;;;;;;;;;;17.52;83.08;98044.53;5444855;32;34190;-69
2023/10/27 07:53:32;;;;;;;;;;;;;;;17.35;83.89;98045.44;5469757;32;35019;-70
2023/10/27 07:56:36;;;;;;;;;;;;;;;17.04;84.58;98045.94;5468185;32;35440;-73
2023/10/27 07:59:38;;;;;;;;;;;;;;;16.85;87.00;98043.50;5471080;32;35320;-68
2023/10/27 08:02:40;;;;;;;;;;;;;;;17.48;83.97;98024.59;5465175;32;36729;-68
2023/10/27 08:05:43;;;;;;;;;;;;;;;17.73;79.32;98020.22;5457454;32;34800;-71
2023/10/27 08:08:46;;;;;;;;;;;;;;;17.24;82.94;98020.84;5478064;32;34583;-69
2023/10/27 08:11:48;;;;;;;;;;;;;;;16.38;88.27;98023.44;5458586;32;35150;-70
2023/10/27 08:14:50;;;;;;;;;;;;;;;17.42;83.12;98011.94;5457380;32;34426;-72
2023/10/27 08:17:52;;;;;;;;;;;;;;;17.52;80.58;98015.31;5470378;32;35144;-69
2023/10/27 08:20:57;;;;;;;;;;;;;;;17.50;80.86;98009.31;5455856;32;34928;-67
2023/10/27 08:24:00;;;;;;;;;;;;;;;17.32;82.99;97994.34;5468465;32;34876;-70
2023/10/27 08:27:02;;;;;;;;;;;;;;;17.70;80.44;97992.09;5471389;32;34393;-74
2023/10/27 08:30:05;;;;;;;;;;;;;;;17.07;83.81;97987.25;5468861;32;34763;-69
2023/10/27 08:33:09;;;;;;;;;;;;;;;17.53;80.21;97987.75;5468446;32;34785;-72
2023/10/27 08:36:14;;;;;;;;;;;;;;;16.98;81.75;97988.19;5452431;32;34567;-74
2023/10/27 08:39:16;;;;;;;;;;;;;;;17.04;82.55;97969.81;5468368;32;34383;-75
2023/10/27 08:42:18;;;;;;;;;;;;;;;17.17;81.32;97965.91;5470603;32;35345;-75
2023/10/27 08:45:20;;;;;;;;;;;;;;;17.33;81.59;97972.09;5467276;32;34490;-72
2023/10/27 08:48:23;;;;;;;;;;;;;;;16.66;85.03;97957.81;5471643;32;35054;-71
2023/10/27 08:51:26;;;;;;;;;;;;;;;16.95;84.36;97940.78;5452402;32;35124;-71
2023/10/27 08:54:31;;;;;;;;;;;;;;;17.12;83.49;97923.91;5459306;32;34669;-69
2023/10/27 08:57:33;;;;;;;;;;;;;;;17.53;81.41;97916.88;5458550;32;34127;-80
2023/10/27 09:00:36;;;;;;;;;;;;;;;17.55;81.34;97911.41;5452386;32;37417;-76
2023/10/27 09:03:38;;;;;;;;;;;;;;;17.67;79.17;97899.47;5470605;32;34941;-85
2023/10/27 09:06:41;;;;;;;;;;;;;;;17.54;79.70;97904.44;5466588;32;34847;-82
2023/10/27 09:09:43;;;;;;;;;;;;;;;17.17;82.94;97897.72;5458065;32;34926;-78
2023/10/27 09:12:47;;;;;;;;;;;;;;;17.37;80.30;97894.78;5465718;32;34931;-69
2023/10/27 09:15:50;;;;;;;;;;;;;;;16.84;83.45;97885.34;5468330;32;33845;-68
2023/10/27 09:18:53;;;;;;;;;;;;;;;17.17;81.56;97886.28;5463870;32;35588;-70
2023/10/27 09:21:55;;;;;;;;;;;;;;;16.99;82.93;97873.94;5447739;32;35401;-68
2023/10/27 09:25:13;;;;;;;;;;;;;;;17.08;83.77;97864.19;5469035;32;34041;-68
2023/10/27 09:28:16;;;;;;;;;;;;;;;17.80;78.26;97862.62;5448345;32;34436;-74
2023/10/27 09:31:31;;;;;;;;;;;;;;;17.81;78.08;97853.66;5457161;32;34693;-70
2023/10/27 09:34:34;;;;;;;;;;;;;;;17.58;78.74;97853.50;5450191;32;34847;-74
2023/10/27 09:37:41;;;;;;;;;;;;;;;17.42;79.56;97839.38;5452228;32;34543;-71
2023/10/27 09:40:45;;;;;;;;;;;;;;;17.32;81.03;97843.00;5478167;32;35474;-75
2023/10/27 09:43:48;;;;;;;;;;;;;;;17.52;79.76;97816.16;5452382;32;34759;-70
2023/10/27 09:46:51;;;;;;;;;;;;;;;17.52;79.14;97819.63;5459002;32;33463;-72
2023/10/27 09:49:54;;;;;;;;;;;;;;;17.71;78.81;97804.31;5454712;32;34963;-70
2023/10/27 09:52:57;;;;;;;;;;;;;;;17.27;81.01;97804.69;5472897;32;34913;-70
2023/10/27 09:55:59;;;;;;;;;;;;;;;17.87;77.56;97799.03;5453168;32;35430;-73
2023/10/27 09:59:01;;;;;;;;;;;;;;;17.86;77.36;97792.88;5468467;32;34497;-70
2023/10/27 10:02:05;;;;;;;;;;;;;;;17.63;78.60;97778.59;5467211;32;34851;-76
2023/10/27 10:05:09;;;;;;;;;;;;;;;16.84;82.52;97769.44;5451431;32;35205;-73
2023/10/27 10:08:11;;;;;;;;;;;;;;;17.70;78.73;97778.75;5472536;32;35420;-72
2023/10/27 10:11:17;;;;;;;;;;;;;;;17.42;80.50;97765.84;5466506;32;35537;-75
2023/10/27 10:14:39;;;;;;;;;;;;;;;17.87;78.28;97748.56;5470832;32;35136;-73
2023/10/27 10:17:43;;;;;;;;;;;;;;;17.55;78.56;97763.50;5472060;32;35198;-74
2023/10/27 10:20:48;;;;;;;;;;;;;;;17.36;79.76;97755.06;5454229;32;34997;-71
2023/10/27 10:23:50;;;;;;;;;;;;;;;17.51;80.00;97748.06;5472553;32;35549;-72
2023/10/27 10:27:10;;;;;;;;;;;;;;;17.75;77.74;97737.44;5468979;32;34814;-73
2023/10/27 10:30:18;;;;;;;;;;;;;;;17.81;77.57;97735.94;5470646;32;34914;-70
2023/10/27 10:33:22;;;;;;;;;;;;;;;18.12;76.49;97747.47;5454725;32;32611;-74
2023/10/27 10:36:26;;;;;;;;;;;;;;;17.96;77.92;97736.06;5469399;32;34785;-74
2023/10/27 10:39:28;;;;;;;;;;;;;;;18.04;76.90;97738.72;5472100;32;34854;-70
2023/10/27 10:42:30;;;;;;;;;;;;;;;18.67;73.81;97732.44;5468116;32;34704;-74
2023/10/27 10:45:42;;;;;;;;;;;;;;;18.60;73.75;97723.47;5473142;32;34432;-74
2023/10/27 10:48:45;;;;;;;;;;;;;;;18.33;75.15;97730.94;5454366;32;34118;-74
2023/10/27 10:51:54;;;;;;;;;;;;;;;17.89;77.66;97727.94;5469965;32;34689;-71
2023/10/27 10:54:58;;;;;;;;;;;;;;;17.65;79.47;97731.47;5456938;32;35726;-71
2023/10/27 10:58:00;;;;;;;;;;;;;;;17.89;78.54;97706.69;5478091;32;34306;-71
2023/10/27 11:01:03;;;;;;;;;;;;;;;18.11;77.51;97713.09;5448537;32;34329;-74
2023/10/27 11:04:05;;;;;;;;;;;;;;;17.84;79.02;97693.13;5448137;32;35153;-72
2023/10/27 11:07:09;;;;;;;;;;;;;;;17.52;80.39;97696.66;5472188;32;34664;-72
2023/10/27 11:10:18;;;;;;;;;;;;;;;17.54;81.29;97692.81;5455104;32;34747;-75
2023/10/27 11:13:23;;;;;;;;;;;;;;;17.54;81.14;97682.19;5454177;32;34481;-71
2023/10/27 11:16:26;;;;;;;;;;;;;;;17.56;81.91;97682.00;5457832;32;36708;-71
2023/10/27 11:19:28;;;;;;;;;;;;;;;17.71;80.98;97700.72;5452551;32;35581;-74
2023/10/27 11:22:30;;;;;;;;;;;;;;;17.55;82.00;97714.87;5473162;32;34885;-71
2023/10/27 11:25:32;;;;;;;;;;;;;;;17.55;83.03;97722.84;5471225;32;34119;-70
2023/10/27 11:28:38;;;;;;;;;;;;;;;17.89;82.35;97732.44;5453508;32;34749;-72
2023/10/27 11:31:42;;;;;;;;;;;;;;;17.63;84.44;97765.31;5450450;32;35244;-75
2023/10/27 11:34:54;;;;;;;;;;;;;;;16.82;92.07;97771.44;5467702;32;34404;-71
2023/10/27 11:38:01;;;;;;;;;;;;;;;17.70;87.73;97787.56;5470258;32;35178;-70
2023/10/27 11:41:10;;;;;;;;;;;;;;;17.76;86.28;97786.09;5466426;32;35390;-71
2023/10/27 11:44:12;;;;;;;;;;;;;;;17.87;85.49;97788.41;5471642;32;34548;-75
2023/10/27 11:47:14;;;;;;;;;;;;;;;17.91;87.15;97783.59;5465597;32;35351;-71
2023/10/27 11:50:16;;;;;;;;;;;;;;;17.72;88.31;97767.03;5466904;32;34371;-70
2023/10/27 11:53:19;;;;;;;;;;;;;;;18.04;83.90;97775.91;5471301;32;35066;-74
2023/10/27 11:56:21;;;;;;;;;;;;;;;18.31;81.71;97756.88;5452328;32;34869;-72
2023/10/27 11:59:25;;;;;;;;;;;;;;;18.49;81.56;97780.56;5457649;32;34952;-71
2023/10/27 12:02:27;;;;;;;;;;;;;;;17.87;81.66;97778.59;5448053;32;35222;-75
2023/10/27 12:05:30;;;;;;;;;;;;;;;18.87;77.44;97791.34;5469499;32;35367;-70
2023/10/27 12:08:32;;;;;;;;;;;;;;;18.71;78.66;97788.81;5463640;32;34615;-71
2023/10/27 12:11:34;;;;;;;;;;;;;;;19.05;75.18;97786.59;5449829;32;35548;-70
2023/10/27 12:14:37;;;;;;;;;;;;;;;17.74;80.24;97761.53;5471098;32;34606;-74
2023/10/27 12:17:39;;;;;;;;;;;;;;;17.54;82.20;97799.03;5451616;32;34189;-71
2023/10/27 12:20:41;;;;;;;;;;;;;;;18.55;78.73;97822.44;5467285;32;34488;-74
2023/10/27 12:23:43;;;;;;;;;;;;;;;17.55;82.28;97842.34;5446295;32;34818;-71
2023/10/27 12:26:45;;;;;;;;;;;;;;;16.96;83.75;97842.44;5467600;32;34691;-74
2023/10/27 12:29:47;;;;;;;;;;;;;;;18.02;79.49;97836.37;5466131;32;35224;-74
2023/10/27 12:32:49;;;;;;;;;;;;;;;18.13;79.64;97841.34;5447496;32;34814;-70
2023/10/27 12:35:52;;;;;;;;;;;;;;;18.62;75.55;97859.81;5470530;32;34843;-75
2023/10/27 12:38:53;;;;;;;;;;;;;;;17.77;79.88;97862.13;5465625;32;34295;-70
2023/10/27 12:41:55;;;;;;;;;;;;;;;17.71;77.59;97861.00;5469872;32;35152;-71
2023/10/27 12:44:57;;;;;;;;;;;;;;;17.58;77.66;97881.84;5465080;32;34894;-73
2023/10/27 12:48:01;;;;;;;;;;;;;;;17.81;74.86;97880.22;5452209;32;34613;-70
2023/10/27 12:51:05;;;;;;;;;;;;;;;18.46;71.58;97874.00;5465211;32;36893;-69
2023/10/27 12:54:08;;;;;;;;;;;;;;;17.87;73.77;97892.03;5444236;32;35307;-74
2023/10/27 12:57:10;;;;;;;;;;;;;;;16.90;76.02;97917.38;5465194;32;34738;-70
2023/10/27 13:00:17;;;;;;;;;;;;;;;17.42;74.17;97897.78;5446628;32;34368;-71
2023/10/27 13:03:19;;;;;;;;;;;;;;;16.41;78.19;97868.53;5463826;32;35623;-70
2023/10/27 13:06:21;;;;;;;;;;;;;;;17.13;75.55;97869.84;5462658;32;34654;-71
2023/10/27 13:09:23;;;;;;;;;;;;;;;16.63;77.40;97904.28;5464622;32;35106;-71
2023/10/27 13:12:25;;;;;;;;;;;;;;;17.10;75.39;97970.19;5463551;32;34746;-71
2023/10/27 13:15:28;;;;;;;;;;;;;;;16.47;77.27;97990.69;5461720;32;34267;-74
2023/10/27 13:18:32;;;;;;;;;;;;;;;16.28;79.06;97972.31;5466350;32;36234;-71
2023/10/27 13:21:37;;;;;;;;;;;;;;;16.34;78.19;97928.47;5447672;32;34626;-70
2023/10/27 13:24:39;;;;;;;;;;;;;;;16.71;75.07;97912.31;5450428;32;35088;-74
2023/10/27 13:27:45;;;;;;;;;;;;;;;16.83;72.07;97926.13;5460536;32;34713;-73
2023/10/27 13:30:47;;;;;;;;;;;;;;;16.23;74.98;97940.19;5445608;32;35738;-72
2023/10/27 13:33:49;;;;;;;;;;;;;;;16.40;75.59;97904.81;5463961;32;35255;-70
2023/10/27 13:36:51;;;;;;;;;;;;;;;16.06;73.47;98037.25;5446341;32;34778;-72
2023/10/27 13:39:55;;;;;;;;;;;;;;;15.98;73.83;97970.94;5473699;32;35787;-74
2023/10/27 13:42:57;;;;;;;;;;;;;;;16.19;73.80;97992.62;5446823;32;34754;-71
2023/10/27 13:46:02;;;;;;;;;;;;;;;17.03;70.58;98023.06;5466498;32;34094;-71
2023/10/27 13:49:10;;;;;;;;;;;;;;;16.08;73.37;97962.91;5447961;32;35275;-73
2023/10/27 13:52:12;;;;;;;;;;;;;;;16.59;71.56;97993.09;5462704;32;34248;-70
2023/10/27 13:55:14;;;;;;;;;;;;;;;15.75;73.73;98001.50;5460296;32;34386;-73
2023/10/27 13:58:18;;;;;;;;;;;;;;;16.38;70.78;97959.81;5458972;32;35009;-71
2023/10/27 14:01:20;;;;;;;;;;;;;;;16.10;72.26;97972.38;5450040;32;34381;-73
2023/10/27 14:04:23;;;;;;;;;;;;;;;16.37;71.61;97992.62;5461825;32;34751;-73
2023/10/27 14:07:25;;;;;;;;;;;;;;;15.64;72.87;97998.09;5464451;32;34788;-70
2023/10/27 14:10:27;;;;;;;;;;;;;;;15.88;71.43;98017.84;5464655;32;34236;-70
2023/10/27 14:13:29;;;;;;;;;;;;;;;15.75;71.45;98030.62;5462607;32;33452;-74
2023/10/27 14:16:31;;;;;;;;;;;;;;;16.18;70.36;98048.44;5466916;32;34926;-75
2023/10/27 14:19:33;;;;;;;;;;;;;;;16.37;69.55;98058.06;5464667;32;34384;-71
2023/10/27 14:22:35;;;;;;;;;;;;;;;15.62;71.59;98066.25;5449151;32;34554;-76
2023/10/27 14:25:38;;;;;;;;;;;;;;;15.90;70.85;98077.63;5462116;32;35608;-74
2023/10/27 14:28:42;;;;;;;;;;;;;;;15.59;71.67;98071.00;5465711;32;34892;-69
2023/10/27 14:31:44;;;;;;;;;;;;;;;15.42;72.33;98069.94;5436161;32;34974;-73
2023/10/27 14:34:46;;;;;;;;;;;;;;;15.07;72.95;98074.13;5447480;32;35435;-73
2023/10/27 14:37:51;;;;;;;;;;;;;;;15.45;71.28;98088.16;5468916;32;35609;-72
2023/10/27 14:40:55;;;;;;;;;;;;;;;15.45;71.62;98089.00;5450065;32;32651;-72
2023/10/27 14:43:58;;;;;;;;;;;;;;;15.56;70.66;98097.75;5468882;32;34769;-71
2023/10/27 14:47:00;;;;;;;;;;;;;;;15.45;70.83;98112.00;5464949;32;34172;-71
2023/10/27 14:50:02;;;;;;;;;;;;;;;14.95;70.83;98124.72;5467301;32;35180;-71
2023/10/27 14:53:04;;;;;;;;;;;;;;;15.53;69.83;98125.34;5464562;32;35875;-73
2023/10/27 14:56:10;;;;;;;;;;;;;;;15.01;70.80;98137.38;5448886;32;34582;-74
2023/10/27 14:59:12;;;;;;;;;;;;;;;15.26;70.59;98136.72;5465101;32;34237;-71
2023/10/27 15:02:16;;;;;;;;;;;;;;;14.99;70.59;98158.66;5461807;32;35199;-71
2023/10/27 15:05:22;;;;;;;;;;;;;;;15.23;70.53;98160.00;5467498;32;35328;-76
2023/10/27 15:08:26;;;;;;;;;;;;;;;15.69;69.27;98172.41;5463844;32;35905;-71
2023/10/27 15:11:28;;;;;;;;;;;;;;;15.87;67.21;98175.12;5465944;32;34410;-72
2023/10/27 15:14:30;;;;;;;;;;;;;;;15.27;69.03;98172.81;5436001;32;34354;-74
2023/10/27 15:17:32;;;;;;;;;;;;;;;14.90;71.13;98192.09;5464543;32;35097;-74
2023/10/27 15:20:38;;;;;;;;;;;;;;;15.52;69.09;98192.53;5469079;32;35510;-70
2023/10/27 15:23:39;;;;;;;;;;;;;;;15.61;67.78;98194.28;5461722;32;35059;-75
2023/10/27 15:26:44;;;;;;;;;;;;;;;15.30;69.18;98201.63;5447993;32;34575;-72
2023/10/27 15:29:47;;;;;;;;;;;;;;;15.24;69.59;98218.06;5436115;32;34811;-73
2023/10/27 15:32:50;;;;;;;;;;;;;;;14.81;71.21;98222.03;5460476;32;35598;-75
2023/10/27 15:35:52;;;;;;;;;;;;;;;14.77;71.67;98235.66;5467839;32;35221;-71
2023/10/27 15:38:56;;;;;;;;;;;;;;;15.33;69.38;98241.06;5463035;32;35266;-76
2023/10/27 15:41:58;;;;;;;;;;;;;;;14.90;71.11;98236.22;5453026;32;35042;-69
2023/10/27 15:45:00;;;;;;;;;;;;;;;14.49;71.87;98237.28;5464132;32;35042;-70
2023/10/27 15:48:02;;;;;;;;;;;;;;;14.84;71.71;98252.62;5468104;32;36568;-68
2023/10/27 15:51:04;;;;;;;;;;;;;;;15.25;70.68;98255.94;5449391;32;35058;-70
2023/10/27 15:54:06;;;;;;;;;;;;;;;15.37;69.54;98271.53;5462796;32;34301;-76